sensor_id;sensor_type;location;lat;lon;timestamp;temperature;humidity
3921;DHT22;1975;49.356;6.816;2022-07-19T00:01:12;24.50;77.80
3921;DHT22;1975;49.356;6.816;2022-07-19T00:03:37;24.40;77.90
3921;DHT22;1975;49.356;6.816;2022-07-19T00:06:03;24.50;77.70
3921;DHT22;1975;49.356;6.816;2022-07-19T00:08:28;24.50;77.40
3921;DHT22;1975;49.356;6.816;2022-07-19T00:10:54;24.40;77.70
3921;DHT22;1975;49.356;6.816;2022-07-19T00:13:19;24.30;77.80
3921;DHT22;1975;49.356;6.816;2022-07-19T00:15:44;24.30;78.10
3921;DHT22;1975;49.356;6.816;2022-07-19T00:18:10;24.20;78.50
3921;DHT22;1975;49.356;6.816;2022-07-19T00:20:36;24.10;78.70
3921;DHT22;1975;49.356;6.816;2022-07-19T00:23:01;24.10;78.70
3921;DHT22;1975;49.356;6.816;2022-07-19T00:25:26;24.10;78.60
3921;DHT22;1975;49.356;6.816;2022-07-19T00:27:52;24.10;78.60
3921;DHT22;1975;49.356;6.816;2022-07-19T00:30:17;24.00;78.60
3921;DHT22;1975;49.356;6.816;2022-07-19T00:32:43;24.00;78.60
3921;DHT22;1975;49.356;6.816;2022-07-19T00:35:08;24.00;78.60
3921;DHT22;1975;49.356;6.816;2022-07-19T00:37:34;24.00;78.50
3921;DHT22;1975;49.356;6.816;2022-07-19T00:39:59;23.90;78.70
3921;DHT22;1975;49.356;6.816;2022-07-19T00:42:25;23.90;78.70
3921;DHT22;1975;49.356;6.816;2022-07-19T00:44:50;23.80;78.90
3921;DHT22;1975;49.356;6.816;2022-07-19T00:47:16;23.70;79.00
3921;DHT22;1975;49.356;6.816;2022-07-19T00:49:41;23.70;79.00
3921;DHT22;1975;49.356;6.816;2022-07-19T00:52:07;23.60;79.20
3921;DHT22;1975;49.356;6.816;2022-07-19T00:54:33;23.60;79.20
3921;DHT22;1975;49.356;6.816;2022-07-19T00:56:59;23.50;79.20
3921;DHT22;1975;49.356;6.816;2022-07-19T00:59:25;23.50;79.40
3921;DHT22;1975;49.356;6.816;2022-07-19T01:01:51;23.40;79.50
3921;DHT22;1975;49.356;6.816;2022-07-19T01:04:19;23.50;79.40
3921;DHT22;1975;49.356;6.816;2022-07-19T01:06:45;23.40;80.40
3921;DHT22;1975;49.356;6.816;2022-07-19T01:09:10;23.40;79.80
3921;DHT22;1975;49.356;6.816;2022-07-19T01:11:36;23.30;80.00
3921;DHT22;1975;49.356;6.816;2022-07-19T01:14:03;23.30;80.00
3921;DHT22;1975;49.356;6.816;2022-07-19T01:16:28;23.20;80.10
3921;DHT22;1975;49.356;6.816;2022-07-19T01:18:54;23.20;80.30
3921;DHT22;1975;49.356;6.816;2022-07-19T01:21:20;23.20;80.40
3921;DHT22;1975;49.356;6.816;2022-07-19T01:23:46;23.10;80.40
3921;DHT22;1975;49.356;6.816;2022-07-19T01:26:12;23.10;80.40
3921;DHT22;1975;49.356;6.816;2022-07-19T01:28:37;23.10;80.30
3921;DHT22;1975;49.356;6.816;2022-07-19T01:31:02;23.10;80.20
3921;DHT22;1975;49.356;6.816;2022-07-19T01:33:28;23.10;80.30
3921;DHT22;1975;49.356;6.816;2022-07-19T01:35:53;23.10;80.00
3921;DHT22;1975;49.356;6.816;2022-07-19T01:38:19;23.10;79.60
3921;DHT22;1975;49.356;6.816;2022-07-19T01:40:44;23.10;79.40
3921;DHT22;1975;49.356;6.816;2022-07-19T01:43:10;23.10;79.50
3921;DHT22;1975;49.356;6.816;2022-07-19T01:45:35;23.10;79.70
3921;DHT22;1975;49.356;6.816;2022-07-19T01:48:01;23.00;79.80
3921;DHT22;1975;49.356;6.816;2022-07-19T01:50:26;23.00;79.80
3921;DHT22;1975;49.356;6.816;2022-07-19T01:52:52;23.00;80.00
3921;DHT22;1975;49.356;6.816;2022-07-19T01:55:18;22.90;80.10
3921;DHT22;1975;49.356;6.816;2022-07-19T01:57:43;22.90;80.60
3921;DHT22;1975;49.356;6.816;2022-07-19T02:00:09;22.80;80.70
3921;DHT22;1975;49.356;6.816;2022-07-19T02:02:35;22.80;80.70
3921;DHT22;1975;49.356;6.816;2022-07-19T02:05:00;22.80;80.70
3921;DHT22;1975;49.356;6.816;2022-07-19T02:07:26;22.80;80.90
3921;DHT22;1975;49.356;6.816;2022-07-19T02:09:51;22.70;81.60
3921;DHT22;1975;49.356;6.816;2022-07-19T02:12:16;22.70;81.60
3921;DHT22;1975;49.356;6.816;2022-07-19T02:14:42;22.70;81.50
3921;DHT22;1975;49.356;6.816;2022-07-19T02:17:07;22.70;81.30
3921;DHT22;1975;49.356;6.816;2022-07-19T02:19:33;22.70;81.30
3921;DHT22;1975;49.356;6.816;2022-07-19T02:21:58;22.70;81.30
3921;DHT22;1975;49.356;6.816;2022-07-19T02:24:24;22.60;81.70
3921;DHT22;1975;49.356;6.816;2022-07-19T02:26:49;22.50;82.20
3921;DHT22;1975;49.356;6.816;2022-07-19T02:29:14;22.40;82.10
3921;DHT22;1975;49.356;6.816;2022-07-19T02:31:40;22.50;81.80
3921;DHT22;1975;49.356;6.816;2022-07-19T02:34:05;22.50;81.80
3921;DHT22;1975;49.356;6.816;2022-07-19T02:36:31;22.40;82.00
3921;DHT22;1975;49.356;6.816;2022-07-19T02:38:56;22.30;82.30
3921;DHT22;1975;49.356;6.816;2022-07-19T02:41:23;22.30;82.40
3921;DHT22;1975;49.356;6.816;2022-07-19T02:43:49;22.30;82.30
3921;DHT22;1975;49.356;6.816;2022-07-19T02:46:14;22.30;82.10
3921;DHT22;1975;49.356;6.816;2022-07-19T02:48:40;22.30;82.40
3921;DHT22;1975;49.356;6.816;2022-07-19T02:51:09;22.20;82.40
3921;DHT22;1975;49.356;6.816;2022-07-19T02:53:34;22.20;82.40
3921;DHT22;1975;49.356;6.816;2022-07-19T02:56:00;22.10;82.30
3921;DHT22;1975;49.356;6.816;2022-07-19T02:58:25;22.10;82.60
3921;DHT22;1975;49.356;6.816;2022-07-19T03:00:50;22.10;82.60
3921;DHT22;1975;49.356;6.816;2022-07-19T03:03:16;22.10;82.70
3921;DHT22;1975;49.356;6.816;2022-07-19T03:06:00;22.10;82.80
3921;DHT22;1975;49.356;6.816;2022-07-19T03:08:25;22.10;83.00
3921;DHT22;1975;49.356;6.816;2022-07-19T03:10:51;22.00;83.20
3921;DHT22;1975;49.356;6.816;2022-07-19T03:13:16;21.90;83.10
3921;DHT22;1975;49.356;6.816;2022-07-19T03:15:42;21.90;83.00
3921;DHT22;1975;49.356;6.816;2022-07-19T03:18:07;21.80;83.10
3921;DHT22;1975;49.356;6.816;2022-07-19T03:20:32;21.80;83.30
3921;DHT22;1975;49.356;6.816;2022-07-19T03:22:58;21.70;83.70
3921;DHT22;1975;49.356;6.816;2022-07-19T03:25:23;21.70;83.90
3921;DHT22;1975;49.356;6.816;2022-07-19T03:27:49;21.60;84.00
3921;DHT22;1975;49.356;6.816;2022-07-19T03:30:15;21.60;84.00
3921;DHT22;1975;49.356;6.816;2022-07-19T03:32:40;21.60;84.00
3921;DHT22;1975;49.356;6.816;2022-07-19T03:35:06;21.50;83.90
3921;DHT22;1975;49.356;6.816;2022-07-19T03:37:31;21.50;84.10
3921;DHT22;1975;49.356;6.816;2022-07-19T03:39:57;21.50;84.10
3921;DHT22;1975;49.356;6.816;2022-07-19T03:42:22;21.50;84.10
3921;DHT22;1975;49.356;6.816;2022-07-19T03:44:48;21.50;84.20
3921;DHT22;1975;49.356;6.816;2022-07-19T03:47:13;21.50;84.40
3921;DHT22;1975;49.356;6.816;2022-07-19T03:49:39;21.40;84.60
3921;DHT22;1975;49.356;6.816;2022-07-19T03:52:04;21.30;84.70
3921;DHT22;1975;49.356;6.816;2022-07-19T03:54:29;21.30;84.90
3921;DHT22;1975;49.356;6.816;2022-07-19T03:56:55;21.30;84.90
3921;DHT22;1975;49.356;6.816;2022-07-19T03:59:21;21.20;85.00
3921;DHT22;1975;49.356;6.816;2022-07-19T04:01:48;21.30;85.20
3921;DHT22;1975;49.356;6.816;2022-07-19T04:04:13;21.30;85.50
3921;DHT22;1975;49.356;6.816;2022-07-19T04:06:39;21.30;85.60
3921;DHT22;1975;49.356;6.816;2022-07-19T04:09:04;21.20;85.70
3921;DHT22;1975;49.356;6.816;2022-07-19T04:11:30;21.10;86.00
3921;DHT22;1975;49.356;6.816;2022-07-19T04:13:55;20.90;86.40
3921;DHT22;1975;49.356;6.816;2022-07-19T04:16:21;21.00;86.50
3921;DHT22;1975;49.356;6.816;2022-07-19T04:18:46;20.90;86.60
3921;DHT22;1975;49.356;6.816;2022-07-19T04:21:12;20.90;86.80
3921;DHT22;1975;49.356;6.816;2022-07-19T04:23:37;20.90;86.80
3921;DHT22;1975;49.356;6.816;2022-07-19T04:26:02;20.90;86.90
3921;DHT22;1975;49.356;6.816;2022-07-19T04:28:28;20.90;86.80
3921;DHT22;1975;49.356;6.816;2022-07-19T04:30:53;20.90;86.90
3921;DHT22;1975;49.356;6.816;2022-07-19T04:33:19;20.90;86.90
3921;DHT22;1975;49.356;6.816;2022-07-19T04:35:44;20.90;87.10
3921;DHT22;1975;49.356;6.816;2022-07-19T04:38:10;20.90;87.10
3921;DHT22;1975;49.356;6.816;2022-07-19T04:40:36;20.90;87.40
3921;DHT22;1975;49.356;6.816;2022-07-19T04:43:01;20.90;87.60
3921;DHT22;1975;49.356;6.816;2022-07-19T04:45:27;20.90;87.50
3921;DHT22;1975;49.356;6.816;2022-07-19T04:47:53;20.90;87.50
3921;DHT22;1975;49.356;6.816;2022-07-19T04:50:18;20.90;87.40
3921;DHT22;1975;49.356;6.816;2022-07-19T04:52:44;21.00;87.70
3921;DHT22;1975;49.356;6.816;2022-07-19T04:55:09;21.00;87.60
3921;DHT22;1975;49.356;6.816;2022-07-19T04:57:35;21.00;87.80
3921;DHT22;1975;49.356;6.816;2022-07-19T05:00:02;21.00;88.00
3921;DHT22;1975;49.356;6.816;2022-07-19T05:02:27;21.10;88.20
3921;DHT22;1975;49.356;6.816;2022-07-19T05:04:53;21.10;88.40
3921;DHT22;1975;49.356;6.816;2022-07-19T05:07:18;21.00;88.60
3921;DHT22;1975;49.356;6.816;2022-07-19T05:09:44;21.10;88.80
3921;DHT22;1975;49.356;6.816;2022-07-19T05:12:10;21.10;88.60
3921;DHT22;1975;49.356;6.816;2022-07-19T05:14:36;21.20;89.40
3921;DHT22;1975;49.356;6.816;2022-07-19T05:17:01;21.20;88.70
3921;DHT22;1975;49.356;6.816;2022-07-19T05:19:27;21.20;88.60
3921;DHT22;1975;49.356;6.816;2022-07-19T05:21:53;21.20;88.60
3921;DHT22;1975;49.356;6.816;2022-07-19T05:24:18;21.30;88.50
3921;DHT22;1975;49.356;6.816;2022-07-19T05:26:44;21.30;88.70
3921;DHT22;1975;49.356;6.816;2022-07-19T05:29:09;21.30;88.50
3921;DHT22;1975;49.356;6.816;2022-07-19T05:31:35;21.30;88.30
3921;DHT22;1975;49.356;6.816;2022-07-19T05:34:00;21.30;88.00
3921;DHT22;1975;49.356;6.816;2022-07-19T05:36:26;21.30;87.60
3921;DHT22;1975;49.356;6.816;2022-07-19T05:38:51;21.30;87.50
3921;DHT22;1975;49.356;6.816;2022-07-19T05:41:18;21.30;87.20
3921;DHT22;1975;49.356;6.816;2022-07-19T05:43:47;21.20;86.80
3921;DHT22;1975;49.356;6.816;2022-07-19T05:46:12;21.30;86.90
3921;DHT22;1975;49.356;6.816;2022-07-19T05:48:38;21.30;87.60
3921;DHT22;1975;49.356;6.816;2022-07-19T05:51:03;21.40;88.00
3921;DHT22;1975;49.356;6.816;2022-07-19T05:53:29;21.40;88.00
3921;DHT22;1975;49.356;6.816;2022-07-19T05:55:54;21.50;88.00
3921;DHT22;1975;49.356;6.816;2022-07-19T05:58:20;21.50;88.10
3921;DHT22;1975;49.356;6.816;2022-07-19T06:00:45;21.60;88.00
3921;DHT22;1975;49.356;6.816;2022-07-19T06:03:30;21.60;88.10
3921;DHT22;1975;49.356;6.816;2022-07-19T06:05:55;21.60;88.10
3921;DHT22;1975;49.356;6.816;2022-07-19T06:08:21;21.70;87.90
3921;DHT22;1975;49.356;6.816;2022-07-19T06:10:46;21.70;87.90
3921;DHT22;1975;49.356;6.816;2022-07-19T06:13:12;21.70;87.70
3921;DHT22;1975;49.356;6.816;2022-07-19T06:15:37;21.80;87.60
3921;DHT22;1975;49.356;6.816;2022-07-19T06:18:03;21.80;87.80
3921;DHT22;1975;49.356;6.816;2022-07-19T06:20:28;21.90;87.50
3921;DHT22;1975;49.356;6.816;2022-07-19T06:22:53;21.90;86.70
3921;DHT22;1975;49.356;6.816;2022-07-19T06:25:19;21.90;86.30
3921;DHT22;1975;49.356;6.816;2022-07-19T06:27:44;22.00;86.20
3921;DHT22;1975;49.356;6.816;2022-07-19T06:30:10;22.00;86.90
3921;DHT22;1975;49.356;6.816;2022-07-19T06:32:36;22.10;86.40
3921;DHT22;1975;49.356;6.816;2022-07-19T06:35:01;22.10;86.50
3921;DHT22;1975;49.356;6.816;2022-07-19T06:37:27;22.20;86.30
3921;DHT22;1975;49.356;6.816;2022-07-19T06:39:52;22.20;86.00
3921;DHT22;1975;49.356;6.816;2022-07-19T06:42:18;22.20;85.80
3921;DHT22;1975;49.356;6.816;2022-07-19T06:44:44;22.30;85.70
3921;DHT22;1975;49.356;6.816;2022-07-19T06:47:10;22.30;85.80
3921;DHT22;1975;49.356;6.816;2022-07-19T06:49:35;22.50;85.40
3921;DHT22;1975;49.356;6.816;2022-07-19T06:52:01;22.50;85.10
3921;DHT22;1975;49.356;6.816;2022-07-19T06:54:26;22.60;85.00
3921;DHT22;1975;49.356;6.816;2022-07-19T06:56:52;22.60;84.80
3921;DHT22;1975;49.356;6.816;2022-07-19T06:59:19;22.70;85.20
3921;DHT22;1975;49.356;6.816;2022-07-19T07:01:44;22.70;85.10
3921;DHT22;1975;49.356;6.816;2022-07-19T07:04:09;22.80;85.20
3921;DHT22;1975;49.356;6.816;2022-07-19T07:06:35;22.80;84.50
3921;DHT22;1975;49.356;6.816;2022-07-19T07:09:00;22.90;84.60
3921;DHT22;1975;49.356;6.816;2022-07-19T07:11:27;22.90;84.70
3921;DHT22;1975;49.356;6.816;2022-07-19T07:13:53;22.90;84.20
3921;DHT22;1975;49.356;6.816;2022-07-19T07:16:19;23.00;83.70
3921;DHT22;1975;49.356;6.816;2022-07-19T07:18:44;23.00;84.10
3921;DHT22;1975;49.356;6.816;2022-07-19T07:21:10;23.10;83.50
3921;DHT22;1975;49.356;6.816;2022-07-19T07:23:35;23.20;83.20
3921;DHT22;1975;49.356;6.816;2022-07-19T07:26:01;23.20;83.50
3921;DHT22;1975;49.356;6.816;2022-07-19T07:28:26;23.30;82.80
3921;DHT22;1975;49.356;6.816;2022-07-19T07:30:52;23.40;82.70
3921;DHT22;1975;49.356;6.816;2022-07-19T07:33:17;23.40;82.70
3921;DHT22;1975;49.356;6.816;2022-07-19T07:35:43;23.50;82.50
3921;DHT22;1975;49.356;6.816;2022-07-19T07:38:08;23.60;82.80
3921;DHT22;1975;49.356;6.816;2022-07-19T07:40:34;23.80;83.40
3921;DHT22;1975;49.356;6.816;2022-07-19T07:42:59;23.90;82.80
3921;DHT22;1975;49.356;6.816;2022-07-19T07:45:28;24.00;82.30
3921;DHT22;1975;49.356;6.816;2022-07-19T07:47:53;24.10;82.20
3921;DHT22;1975;49.356;6.816;2022-07-19T07:50:19;24.30;81.10
3921;DHT22;1975;49.356;6.816;2022-07-19T07:52:44;24.50;80.00
3921;DHT22;1975;49.356;6.816;2022-07-19T07:55:10;24.60;79.00
3921;DHT22;1975;49.356;6.816;2022-07-19T07:57:35;24.80;77.10
3921;DHT22;1975;49.356;6.816;2022-07-19T08:00:01;24.80;76.80
3921;DHT22;1975;49.356;6.816;2022-07-19T08:02:26;24.90;77.20
3921;DHT22;1975;49.356;6.816;2022-07-19T08:04:52;25.00;76.90
3921;DHT22;1975;49.356;6.816;2022-07-19T08:07:17;25.10;76.60
3921;DHT22;1975;49.356;6.816;2022-07-19T08:09:43;25.20;76.70
3921;DHT22;1975;49.356;6.816;2022-07-19T08:12:08;25.20;76.00
3921;DHT22;1975;49.356;6.816;2022-07-19T08:14:34;25.30;76.80
3921;DHT22;1975;49.356;6.816;2022-07-19T08:16:59;25.30;76.00
3921;DHT22;1975;49.356;6.816;2022-07-19T08:19:25;25.30;76.70
3921;DHT22;1975;49.356;6.816;2022-07-19T08:21:50;25.30;76.00
3921;DHT22;1975;49.356;6.816;2022-07-19T08:24:16;25.40;74.50
3921;DHT22;1975;49.356;6.816;2022-07-19T08:26:41;25.50;74.80
3921;DHT22;1975;49.356;6.816;2022-07-19T08:29:07;25.60;74.30
3921;DHT22;1975;49.356;6.816;2022-07-19T08:31:33;25.60;74.20
3921;DHT22;1975;49.356;6.816;2022-07-19T08:33:58;25.60;74.20
3921;DHT22;1975;49.356;6.816;2022-07-19T08:36:23;25.60;74.10
3921;DHT22;1975;49.356;6.816;2022-07-19T08:38:49;25.70;73.80
3921;DHT22;1975;49.356;6.816;2022-07-19T08:41:14;26.00;73.30
3921;DHT22;1975;49.356;6.816;2022-07-19T08:43:41;27.30;66.70
3921;DHT22;1975;49.356;6.816;2022-07-19T08:46:06;27.60;65.80
3921;DHT22;1975;49.356;6.816;2022-07-19T08:48:32;27.20;67.50
3921;DHT22;1975;49.356;6.816;2022-07-19T08:50:59;27.00;68.30
3921;DHT22;1975;49.356;6.816;2022-07-19T08:53:28;27.00;69.20
3921;DHT22;1975;49.356;6.816;2022-07-19T08:55:53;26.80;70.10
3921;DHT22;1975;49.356;6.816;2022-07-19T08:58:19;27.10;68.30
3921;DHT22;1975;49.356;6.816;2022-07-19T09:00:44;27.30;68.30
3921;DHT22;1975;49.356;6.816;2022-07-19T09:03:10;27.10;69.20
3921;DHT22;1975;49.356;6.816;2022-07-19T09:05:35;27.00;69.30
3921;DHT22;1975;49.356;6.816;2022-07-19T09:08:05;27.20;68.80
3921;DHT22;1975;49.356;6.816;2022-07-19T09:10:32;27.20;69.10
3921;DHT22;1975;49.356;6.816;2022-07-19T09:15:43;27.30;68.20
3921;DHT22;1975;49.356;6.816;2022-07-19T09:18:12;27.30;68.50
3921;DHT22;1975;49.356;6.816;2022-07-19T09:20:38;27.40;67.90
3921;DHT22;1975;49.356;6.816;2022-07-19T09:23:04;27.60;66.20
3921;DHT22;1975;49.356;6.816;2022-07-19T09:25:34;27.60;66.00
3921;DHT22;1975;49.356;6.816;2022-07-19T09:28:00;27.50;65.80
3921;DHT22;1975;49.356;6.816;2022-07-19T09:30:35;27.80;64.90
3921;DHT22;1975;49.356;6.816;2022-07-19T09:33:06;27.80;64.50
3921;DHT22;1975;49.356;6.816;2022-07-19T09:35:42;27.60;66.00
3921;DHT22;1975;49.356;6.816;2022-07-19T09:49:01;27.70;65.30
3921;DHT22;1975;49.356;6.816;2022-07-19T09:51:27;27.80;64.90
3921;DHT22;1975;49.356;6.816;2022-07-19T09:53:52;27.80;65.40
3921;DHT22;1975;49.356;6.816;2022-07-19T09:56:18;28.00;64.20
3921;DHT22;1975;49.356;6.816;2022-07-19T09:58:44;28.30;62.60
3921;DHT22;1975;49.356;6.816;2022-07-19T10:01:10;29.00;61.00
3921;DHT22;1975;49.356;6.816;2022-07-19T10:03:36;29.20;60.90
3921;DHT22;1975;49.356;6.816;2022-07-19T10:06:01;29.20;61.30
3921;DHT22;1975;49.356;6.816;2022-07-19T10:08:27;29.30;59.20
3921;DHT22;1975;49.356;6.816;2022-07-19T10:10:52;30.10;58.90
3921;DHT22;1975;49.356;6.816;2022-07-19T10:13:18;30.10;59.10
3921;DHT22;1975;49.356;6.816;2022-07-19T10:15:44;29.40;61.20
3921;DHT22;1975;49.356;6.816;2022-07-19T10:18:14;29.10;61.90
3921;DHT22;1975;49.356;6.816;2022-07-19T10:20:42;28.90;61.80
3921;DHT22;1975;49.356;6.816;2022-07-19T10:23:08;28.70;62.30
3921;DHT22;1975;49.356;6.816;2022-07-19T10:25:52;29.40;59.70
3921;DHT22;1975;49.356;6.816;2022-07-19T10:30:54;29.90;59.10
3921;DHT22;1975;49.356;6.816;2022-07-19T10:33:32;29.90;59.90
3921;DHT22;1975;49.356;6.816;2022-07-19T10:35:58;29.50;59.90
3921;DHT22;1975;49.356;6.816;2022-07-19T10:38:24;30.50;56.60
3921;DHT22;1975;49.356;6.816;2022-07-19T10:40:50;30.80;55.70
3921;DHT22;1975;49.356;6.816;2022-07-19T10:43:17;31.30;55.00
3921;DHT22;1975;49.356;6.816;2022-07-19T10:45:43;30.90;56.30
3921;DHT22;1975;49.356;6.816;2022-07-19T10:48:38;30.30;56.50
3921;DHT22;1975;49.356;6.816;2022-07-19T10:51:04;30.50;56.30
3921;DHT22;1975;49.356;6.816;2022-07-19T11:01:16;29.70;59.20
3921;DHT22;1975;49.356;6.816;2022-07-19T11:03:46;29.80;59.40
3921;DHT22;1975;49.356;6.816;2022-07-19T11:06:19;29.70;60.40
3921;DHT22;1975;49.356;6.816;2022-07-19T11:08:45;29.90;60.40
3921;DHT22;1975;49.356;6.816;2022-07-19T11:11:12;30.80;57.20
3921;DHT22;1975;49.356;6.816;2022-07-19T11:13:38;31.10;56.60
3921;DHT22;1975;49.356;6.816;2022-07-19T11:16:04;30.90;56.50
3921;DHT22;1975;49.356;6.816;2022-07-19T11:18:30;30.80;57.60
3921;DHT22;1975;49.356;6.816;2022-07-19T11:20:57;31.10;57.40
3921;DHT22;1975;49.356;6.816;2022-07-19T11:23:23;31.20;55.90
3921;DHT22;1975;49.356;6.816;2022-07-19T11:25:49;31.10;56.30
3921;DHT22;1975;49.356;6.816;2022-07-19T11:28:23;30.90;57.10
3921;DHT22;1975;49.356;6.816;2022-07-19T11:30:49;30.80;56.10
3921;DHT22;1975;49.356;6.816;2022-07-19T11:33:16;31.10;55.20
3921;DHT22;1975;49.356;6.816;2022-07-19T11:35:55;31.50;52.00
3921;DHT22;1975;49.356;6.816;2022-07-19T11:38:20;31.90;53.10
3921;DHT22;1975;49.356;6.816;2022-07-19T11:40:46;31.50;54.90
3921;DHT22;1975;49.356;6.816;2022-07-19T11:43:11;31.10;56.00
3921;DHT22;1975;49.356;6.816;2022-07-19T11:45:41;31.20;55.20
3921;DHT22;1975;49.356;6.816;2022-07-19T11:48:07;31.00;55.50
3921;DHT22;1975;49.356;6.816;2022-07-19T11:50:33;30.80;55.10
3921;DHT22;1975;49.356;6.816;2022-07-19T11:52:59;31.60;53.70
3921;DHT22;1975;49.356;6.816;2022-07-19T11:55:26;31.80;53.70
3921;DHT22;1975;49.356;6.816;2022-07-19T11:57:52;31.40;54.40
3921;DHT22;1975;49.356;6.816;2022-07-19T12:00:18;31.30;54.40
3921;DHT22;1975;49.356;6.816;2022-07-19T12:02:51;31.40;54.00
3921;DHT22;1975;49.356;6.816;2022-07-19T12:05:17;31.60;52.50
3921;DHT22;1975;49.356;6.816;2022-07-19T12:07:46;31.90;52.50
3921;DHT22;1975;49.356;6.816;2022-07-19T12:10:31;31.80;51.20
3921;DHT22;1975;49.356;6.816;2022-07-19T12:12:56;32.30;49.70
3921;DHT22;1975;49.356;6.816;2022-07-19T12:15:22;32.40;50.50
3921;DHT22;1975;49.356;6.816;2022-07-19T12:17:56;32.10;50.50
3921;DHT22;1975;49.356;6.816;2022-07-19T12:20:22;31.80;51.10
3921;DHT22;1975;49.356;6.816;2022-07-19T12:22:48;32.20;50.20
3921;DHT22;1975;49.356;6.816;2022-07-19T12:25:13;32.50;50.20
3921;DHT22;1975;49.356;6.816;2022-07-19T12:27:39;32.50;50.00
3921;DHT22;1975;49.356;6.816;2022-07-19T12:30:06;32.30;50.40
3921;DHT22;1975;49.356;6.816;2022-07-19T12:35:00;32.20;49.50
3921;DHT22;1975;49.356;6.816;2022-07-19T12:37:27;32.00;50.40
3921;DHT22;1975;49.356;6.816;2022-07-19T12:42:24;32.10;50.80
3921;DHT22;1975;49.356;6.816;2022-07-19T12:44:49;32.10;51.20
3921;DHT22;1975;49.356;6.816;2022-07-19T12:47:15;31.90;52.00
3921;DHT22;1975;49.356;6.816;2022-07-19T12:49:45;31.70;52.30
3921;DHT22;1975;49.356;6.816;2022-07-19T12:52:11;31.60;52.70
3921;DHT22;1975;49.356;6.816;2022-07-19T12:54:36;31.70;53.00
3921;DHT22;1975;49.356;6.816;2022-07-19T12:57:02;31.90;53.50
3921;DHT22;1975;49.356;6.816;2022-07-19T12:59:27;32.40;50.90
3921;DHT22;1975;49.356;6.816;2022-07-19T13:02:06;32.80;50.00
3921;DHT22;1975;49.356;6.816;2022-07-19T13:04:32;32.80;51.40
3921;DHT22;1975;49.356;6.816;2022-07-19T13:06:57;32.30;51.10
3921;DHT22;1975;49.356;6.816;2022-07-19T13:09:22;32.10;51.30
3921;DHT22;1975;49.356;6.816;2022-07-19T13:11:48;32.50;50.70
3921;DHT22;1975;49.356;6.816;2022-07-19T13:14:13;32.30;51.40
3921;DHT22;1975;49.356;6.816;2022-07-19T13:16:39;32.60;50.20
3921;DHT22;1975;49.356;6.816;2022-07-19T13:19:04;32.40;51.60
3921;DHT22;1975;49.356;6.816;2022-07-19T13:21:30;32.20;50.80
3921;DHT22;1975;49.356;6.816;2022-07-19T13:23:55;32.10;51.20
3921;DHT22;1975;49.356;6.816;2022-07-19T13:26:23;33.30;48.30
3921;DHT22;1975;49.356;6.816;2022-07-19T13:28:49;33.30;48.90
3921;DHT22;1975;49.356;6.816;2022-07-19T13:31:14;33.00;50.30
3921;DHT22;1975;49.356;6.816;2022-07-19T13:33:39;32.80;51.50
3921;DHT22;1975;49.356;6.816;2022-07-19T13:36:05;32.50;51.60
3921;DHT22;1975;49.356;6.816;2022-07-19T13:38:30;32.20;51.70
3921;DHT22;1975;49.356;6.816;2022-07-19T13:40:56;32.20;51.00
3921;DHT22;1975;49.356;6.816;2022-07-19T13:43:21;32.40;51.00
3921;DHT22;1975;49.356;6.816;2022-07-19T13:45:47;32.80;50.90
3921;DHT22;1975;49.356;6.816;2022-07-19T13:48:12;32.60;51.00
3921;DHT22;1975;49.356;6.816;2022-07-19T13:50:38;32.70;50.20
3921;DHT22;1975;49.356;6.816;2022-07-19T13:53:04;32.80;50.40
3921;DHT22;1975;49.356;6.816;2022-07-19T13:55:29;33.00;50.00
3921;DHT22;1975;49.356;6.816;2022-07-19T13:57:55;33.10;49.30
3921;DHT22;1975;49.356;6.816;2022-07-19T14:00:20;33.00;50.40
3921;DHT22;1975;49.356;6.816;2022-07-19T14:02:46;32.90;50.90
3921;DHT22;1975;49.356;6.816;2022-07-19T14:05:12;32.80;50.10
3921;DHT22;1975;49.356;6.816;2022-07-19T14:07:37;32.90;50.00
3921;DHT22;1975;49.356;6.816;2022-07-19T14:10:03;33.20;50.30
3921;DHT22;1975;49.356;6.816;2022-07-19T14:12:28;33.20;50.10
3921;DHT22;1975;49.356;6.816;2022-07-19T14:14:54;33.30;49.80
3921;DHT22;1975;49.356;6.816;2022-07-19T14:17:19;33.30;50.20
3921;DHT22;1975;49.356;6.816;2022-07-19T14:19:45;33.30;49.10
3921;DHT22;1975;49.356;6.816;2022-07-19T14:22:11;33.20;50.00
3921;DHT22;1975;49.356;6.816;2022-07-19T14:24:36;33.20;50.00
3921;DHT22;1975;49.356;6.816;2022-07-19T14:27:02;33.40;49.40
3921;DHT22;1975;49.356;6.816;2022-07-19T14:29:27;33.50;49.00
3921;DHT22;1975;49.356;6.816;2022-07-19T14:31:53;33.30;48.80
3921;DHT22;1975;49.356;6.816;2022-07-19T14:34:19;33.30;49.40
3921;DHT22;1975;49.356;6.816;2022-07-19T14:36:44;33.20;50.40
3921;DHT22;1975;49.356;6.816;2022-07-19T14:39:10;33.40;49.90
3921;DHT22;1975;49.356;6.816;2022-07-19T14:41:36;33.30;49.60
3921;DHT22;1975;49.356;6.816;2022-07-19T14:44:01;33.30;49.90
3921;DHT22;1975;49.356;6.816;2022-07-19T14:46:27;33.40;49.40
3921;DHT22;1975;49.356;6.816;2022-07-19T14:48:52;33.50;49.90
3921;DHT22;1975;49.356;6.816;2022-07-19T14:51:18;33.50;50.00
3921;DHT22;1975;49.356;6.816;2022-07-19T14:53:43;33.60;48.30
3921;DHT22;1975;49.356;6.816;2022-07-19T14:56:09;33.60;48.70
3921;DHT22;1975;49.356;6.816;2022-07-19T14:58:34;33.50;48.80
3921;DHT22;1975;49.356;6.816;2022-07-19T15:01:00;33.40;48.70
3921;DHT22;1975;49.356;6.816;2022-07-19T15:03:26;33.60;48.80
3921;DHT22;1975;49.356;6.816;2022-07-19T15:05:51;33.70;48.50
3921;DHT22;1975;49.356;6.816;2022-07-19T15:08:17;33.70;48.80
3921;DHT22;1975;49.356;6.816;2022-07-19T15:10:42;33.70;48.50
3921;DHT22;1975;49.356;6.816;2022-07-19T15:13:07;33.80;48.50
3921;DHT22;1975;49.356;6.816;2022-07-19T15:15:33;33.90;48.30
3921;DHT22;1975;49.356;6.816;2022-07-19T15:17:58;33.80;48.90
3921;DHT22;1975;49.356;6.816;2022-07-19T15:20:24;33.90;48.90
3921;DHT22;1975;49.356;6.816;2022-07-19T15:22:50;33.70;49.60
3921;DHT22;1975;49.356;6.816;2022-07-19T15:25:15;33.70;49.80
3921;DHT22;1975;49.356;6.816;2022-07-19T15:27:44;33.70;49.30
3921;DHT22;1975;49.356;6.816;2022-07-19T15:30:09;33.80;48.10
3921;DHT22;1975;49.356;6.816;2022-07-19T15:32:35;34.00;48.10
3921;DHT22;1975;49.356;6.816;2022-07-19T15:35:01;34.00;47.70
3921;DHT22;1975;49.356;6.816;2022-07-19T15:37:28;34.10;47.50
3921;DHT22;1975;49.356;6.816;2022-07-19T15:39:53;34.00;47.80
3921;DHT22;1975;49.356;6.816;2022-07-19T15:42:18;34.10;48.20
3921;DHT22;1975;49.356;6.816;2022-07-19T15:44:44;34.10;47.60
3921;DHT22;1975;49.356;6.816;2022-07-19T15:47:09;34.30;47.70
3921;DHT22;1975;49.356;6.816;2022-07-19T15:49:35;34.30;47.90
3921;DHT22;1975;49.356;6.816;2022-07-19T15:52:00;34.10;48.40
3921;DHT22;1975;49.356;6.816;2022-07-19T15:54:26;34.10;48.10
3921;DHT22;1975;49.356;6.816;2022-07-19T15:56:51;34.20;47.70
3921;DHT22;1975;49.356;6.816;2022-07-19T15:59:17;34.50;47.50
3921;DHT22;1975;49.356;6.816;2022-07-19T16:01:42;34.60;47.40
3921;DHT22;1975;49.356;6.816;2022-07-19T16:04:08;34.60;47.30
3921;DHT22;1975;49.356;6.816;2022-07-19T16:06:33;34.60;47.20
3921;DHT22;1975;49.356;6.816;2022-07-19T16:08:59;34.70;47.20
3921;DHT22;1975;49.356;6.816;2022-07-19T16:11:24;34.70;46.80
3921;DHT22;1975;49.356;6.816;2022-07-19T16:13:50;34.70;46.50
3921;DHT22;1975;49.356;6.816;2022-07-19T16:16:15;34.80;46.60
3921;DHT22;1975;49.356;6.816;2022-07-19T16:18:40;34.80;47.50
3921;DHT22;1975;49.356;6.816;2022-07-19T16:21:07;35.00;47.20
3921;DHT22;1975;49.356;6.816;2022-07-19T16:23:33;35.10;46.60